createdAt,value
2023-01-12T00:01:25.958Z,16.23
2023-01-12T00:03:53.345Z,15.27
2023-01-12T00:06:21.133Z,14.77
2023-01-12T00:08:48.846Z,11.83
2023-01-12T00:11:17.493Z,12.17
2023-01-12T00:13:44.707Z,19.10
2023-01-12T00:16:34.753Z,14.93
2023-01-12T00:19:02.619Z,15.20
2023-01-12T00:21:32.968Z,17.23
2023-01-12T00:24:00.066Z,15.17
2023-01-12T00:26:27.225Z,17.57
2023-01-12T00:28:54.805Z,16.60
2023-01-12T00:31:22.023Z,15.83
2023-01-12T00:33:49.146Z,11.87
2023-01-12T00:36:18.441Z,12.13
2023-01-12T00:38:45.552Z,14.23
2023-01-12T00:41:32.036Z,11.07
2023-01-12T00:44:17.944Z,18.50
2023-01-12T00:46:45.037Z,16.43
2023-01-12T00:49:12.148Z,15.87
2023-01-12T00:51:39.310Z,13.43
2023-01-12T00:54:08.261Z,13.43
2023-01-12T00:56:36.161Z,16.33
2023-01-12T00:59:03.715Z,16.13
2023-01-12T01:01:31.085Z,15.10
2023-01-12T01:03:58.344Z,16.23
2023-01-12T01:06:25.425Z,17.30
2023-01-12T01:08:52.514Z,15.07
2023-01-12T01:11:19.885Z,12.00
2023-01-12T01:13:48.050Z,12.80
2023-01-12T01:16:16.502Z,17.50
2023-01-12T01:18:44.187Z,20.20
2023-01-12T01:21:12.061Z,13.20
2023-01-12T01:23:39.610Z,9.57
2023-01-12T01:26:17.401Z,15.23
2023-01-12T01:28:44.774Z,21.33
2023-01-12T01:31:14.560Z,13.47
2023-01-12T01:33:41.800Z,17.23
2023-01-12T01:36:09.512Z,13.20
2023-01-12T01:38:37.195Z,12.27
2023-01-12T01:41:04.985Z,22.57
2023-01-12T01:43:49.390Z,17.60
2023-01-12T01:46:17.617Z,14.20
2023-01-12T01:48:44.933Z,13.30
2023-01-12T01:51:14.932Z,16.17
2023-01-12T01:53:44.074Z,12.60
2023-01-12T01:56:16.654Z,19.97
2023-01-12T01:59:00.653Z,19.50
2023-01-12T02:01:28.266Z,18.97
2023-01-12T02:03:56.074Z,18.00
2023-01-12T02:06:26.145Z,12.87
2023-01-12T02:08:56.948Z,19.73
2023-01-12T02:11:42.845Z,16.70
2023-01-12T02:14:48.980Z,20.37
2023-01-12T02:17:19.444Z,20.03
2023-01-12T02:19:52.446Z,22.50
2023-01-12T02:22:19.507Z,14.53
2023-01-12T02:25:03.569Z,17.90
2023-01-12T02:27:34.130Z,18.60
2023-01-12T02:30:04.274Z,19.60
2023-01-12T02:32:44.480Z,17.97
2023-01-12T02:35:14.356Z,16.77
2023-01-12T02:38:00.010Z,18.73
2023-01-12T02:40:38.841Z,16.03
2023-01-12T02:43:10.089Z,17.77
2023-01-12T02:46:06.357Z,12.80
2023-01-12T02:48:42.814Z,13.20
2023-01-12T02:51:15.900Z,14.60
2023-01-12T02:53:54.148Z,16.23
2023-01-12T02:56:50.644Z,16.83
2023-01-12T02:59:26.445Z,14.30
2023-01-12T03:01:55.028Z,14.10
2023-01-12T03:04:23.256Z,15.80
2023-01-12T03:06:56.563Z,12.93
2023-01-12T03:09:26.471Z,17.67
2023-01-12T03:11:55.968Z,19.13
2023-01-12T03:14:23.492Z,14.47
2023-01-12T03:16:51.463Z,15.73
2023-01-12T03:19:20.253Z,21.33
2023-01-12T03:21:47.331Z,13.97
2023-01-12T03:24:19.460Z,11.87
2023-01-12T03:26:48.659Z,18.83
2023-01-12T03:29:27.961Z,11.90
2023-01-12T03:31:55.787Z,14.60
2023-01-12T03:34:23.287Z,17.67
2023-01-12T03:36:53.212Z,18.57
2023-01-12T03:39:43.458Z,13.30
2023-01-12T03:42:12.823Z,18.97
2023-01-12T03:44:50.857Z,15.70
2023-01-12T03:47:23.607Z,16.47
2023-01-12T03:49:56.662Z,17.40
2023-01-12T03:52:24.895Z,17.67
2023-01-12T03:54:54.012Z,13.50
2023-01-12T03:57:21.799Z,20.93
2023-01-12T03:59:49.002Z,15.00
2023-01-12T04:02:16.418Z,17.67
2023-01-12T04:04:43.600Z,17.23
2023-01-12T04:07:10.837Z,19.27
2023-01-12T04:09:37.964Z,13.07
2023-01-12T04:12:11.467Z,17.07
2023-01-12T04:14:47.928Z,14.40
2023-01-12T04:17:15.706Z,14.87
2023-01-12T04:19:43.149Z,16.83
2023-01-12T04:22:29.839Z,15.37
2023-01-12T04:24:56.997Z,14.27
2023-01-12T04:27:24.240Z,17.30
2023-01-12T04:29:51.378Z,15.27
2023-01-12T04:32:18.540Z,22.67
2023-01-12T04:34:46.367Z,12.60
2023-01-12T04:37:13.813Z,12.63
2023-01-12T04:39:40.942Z,16.07
2023-01-12T04:42:28.043Z,13.97
2023-01-12T04:44:55.166Z,14.37
2023-01-12T04:47:22.345Z,18.57
2023-01-12T04:49:49.548Z,14.67
2023-01-12T04:52:16.702Z,15.40
2023-01-12T04:54:43.841Z,15.43
2023-01-12T04:57:10.977Z,15.97
2023-01-12T04:59:38.089Z,13.73
2023-01-12T05:02:05.313Z,18.43
2023-01-12T05:04:32.543Z,14.73
2023-01-12T05:06:59.676Z,12.83
2023-01-12T05:09:45.319Z,13.80
2023-01-12T05:12:12.455Z,16.10
2023-01-12T05:14:39.620Z,16.50
2023-01-12T05:17:06.747Z,12.83
2023-01-12T05:19:33.884Z,17.50
2023-01-12T05:22:01.012Z,15.43
2023-01-12T05:24:28.145Z,15.40
2023-01-12T05:26:55.319Z,14.40
2023-01-12T05:29:22.454Z,14.20
2023-01-12T05:31:50.109Z,16.13
2023-01-12T05:34:19.432Z,17.67
2023-01-12T05:36:49.852Z,15.17
2023-01-12T05:39:17.003Z,14.37
2023-01-12T05:42:02.893Z,13.80
2023-01-12T05:44:30.041Z,12.40
2023-01-12T05:46:57.191Z,16.13
2023-01-12T05:49:24.359Z,14.50
2023-01-12T05:51:51.587Z,14.67
2023-01-12T05:54:18.726Z,15.00
2023-01-12T05:56:45.893Z,14.93
2023-01-12T05:59:15.186Z,12.33
2023-01-12T06:01:42.345Z,13.77
2023-01-12T06:04:09.472Z,12.23
2023-01-12T06:06:36.652Z,11.17
2023-01-12T06:09:03.983Z,16.00
2023-01-12T06:11:50.156Z,14.47
2023-01-12T06:14:17.263Z,14.87
2023-01-12T06:16:44.673Z,10.47
2023-01-12T06:19:12.951Z,14.93
2023-01-12T06:21:40.555Z,14.07
2023-01-12T06:24:08.053Z,10.90
2023-01-12T06:26:35.247Z,18.17
2023-01-12T06:29:05.343Z,18.73
2023-01-12T06:31:32.537Z,22.50
2023-01-12T06:33:59.719Z,13.10
2023-01-12T06:36:26.847Z,12.70
2023-01-12T06:38:54.012Z,18.00
2023-01-12T06:41:39.738Z,16.03
2023-01-12T06:44:06.923Z,9.87
2023-01-12T06:46:34.081Z,14.00
2023-01-12T06:49:01.307Z,14.43
2023-01-12T06:51:28.500Z,11.03
2023-01-12T06:53:55.840Z,18.53
2023-01-12T06:56:23.016Z,15.97
2023-01-12T06:58:50.193Z,12.63
2023-01-12T07:01:17.423Z,16.20
2023-01-12T07:03:44.739Z,13.20
2023-01-12T07:06:12.058Z,18.80
2023-01-12T07:08:39.156Z,14.10
2023-01-12T07:11:12.205Z,16.00
2023-01-12T07:13:39.436Z,13.47
2023-01-12T07:16:06.922Z,11.90
2023-01-12T07:18:34.111Z,14.20
2023-01-12T07:21:04.660Z,13.97
2023-01-12T07:23:31.830Z,15.60
2023-01-12T07:25:58.953Z,17.97
2023-01-12T07:28:26.087Z,14.40
2023-01-12T07:30:53.333Z,15.63
2023-01-12T07:33:20.492Z,10.90
2023-01-12T07:35:47.624Z,22.10
2023-01-12T07:38:14.734Z,13.23
2023-01-12T07:40:42.039Z,13.13
2023-01-12T07:43:11.650Z,15.37
2023-01-12T07:45:38.843Z,16.23
2023-01-12T07:48:06.140Z,7.83
2023-01-12T07:50:33.437Z,23.10
2023-01-12T07:53:02.185Z,14.27
2023-01-12T07:55:30.225Z,11.30
2023-01-12T07:58:01.279Z,10.23
2023-01-12T08:00:29.677Z,11.47
2023-01-12T08:02:59.049Z,17.17
2023-01-12T08:05:26.240Z,18.13
2023-01-12T08:07:53.408Z,11.77
2023-01-12T08:10:20.772Z,12.43
2023-01-12T08:12:50.941Z,15.17
2023-01-12T08:15:18.211Z,11.60
2023-01-12T08:18:14.887Z,15.27
2023-01-12T08:20:42.252Z,8.20
2023-01-12T08:23:11.819Z,14.93
2023-01-12T08:25:44.564Z,13.07
2023-01-12T08:28:15.136Z,15.67
2023-01-12T08:30:42.397Z,15.20
2023-01-12T08:33:09.566Z,13.73
2023-01-12T08:35:36.701Z,16.70
2023-01-12T08:38:03.938Z,11.03
2023-01-12T08:40:51.015Z,14.00
2023-01-12T08:43:38.165Z,14.97
2023-01-12T08:46:08.021Z,14.43
2023-01-12T08:48:36.155Z,13.33
2023-01-12T08:51:03.707Z,15.20
2023-01-12T08:53:30.915Z,13.10
2023-01-12T08:55:58.094Z,15.07
2023-01-12T08:58:25.235Z,17.43
2023-01-12T09:00:52.776Z,12.47
2023-01-12T09:03:20.009Z,13.30
2023-01-12T09:05:47.937Z,14.80
2023-01-12T09:08:15.432Z,15.00
2023-01-12T09:10:43.653Z,15.80
2023-01-12T09:13:15.628Z,10.60
2023-01-12T09:15:48.186Z,10.77
2023-01-12T09:18:20.259Z,15.53
2023-01-12T09:20:47.491Z,15.37
2023-01-12T09:23:14.683Z,15.50
2023-01-12T09:25:41.852Z,16.97
2023-01-12T09:28:08.968Z,15.00
2023-01-12T09:30:36.097Z,14.90
2023-01-12T09:33:03.486Z,10.63
2023-01-12T09:35:31.134Z,9.60
2023-01-12T09:37:58.276Z,9.47
2023-01-12T09:40:25.397Z,12.47
2023-01-12T09:43:11.984Z,13.80
2023-01-12T09:45:57.918Z,11.77
2023-01-12T09:48:26.081Z,13.70
2023-01-12T09:51:00.738Z,15.07
2023-01-12T09:53:31.201Z,12.73
2023-01-12T09:56:02.761Z,12.73
2023-01-12T09:58:48.597Z,9.97
2023-01-12T10:01:28.337Z,10.50
2023-01-12T10:03:57.016Z,10.63
2023-01-12T10:06:24.165Z,7.47
2023-01-12T10:08:52.598Z,11.43
2023-01-12T10:11:38.425Z,11.50
2023-01-12T10:14:24.563Z,14.27
2023-01-12T10:16:51.681Z,12.40
2023-01-12T10:19:37.776Z,12.97
2023-01-12T10:22:39.439Z,8.77
2023-01-12T10:25:19.108Z,13.30
2023-01-12T10:27:47.339Z,11.47
2023-01-12T10:30:19.476Z,10.23
2023-01-12T10:32:47.079Z,11.20
2023-01-12T10:35:18.328Z,9.73
2023-01-12T10:37:46.300Z,11.03
2023-01-12T10:40:32.842Z,12.73
2023-01-12T10:43:21.855Z,15.80
2023-01-12T10:46:04.402Z,9.40
2023-01-12T10:48:31.958Z,10.20
2023-01-12T10:51:00.637Z,11.23
2023-01-12T10:53:30.038Z,16.27
2023-01-12T10:55:57.251Z,10.13
2023-01-12T10:58:29.927Z,13.30
2023-01-12T11:00:57.334Z,10.37
2023-01-12T11:03:31.476Z,9.63
2023-01-12T11:06:15.731Z,8.63
2023-01-12T11:08:43.384Z,12.07
2023-01-12T11:11:19.679Z,10.60
2023-01-12T11:13:46.841Z,10.83
2023-01-12T11:16:13.992Z,9.57
2023-01-12T11:18:46.222Z,11.97
2023-01-12T11:21:17.691Z,13.13
2023-01-12T11:24:03.526Z,14.03
2023-01-12T11:26:54.061Z,9.20
2023-01-12T11:29:41.270Z,10.00
2023-01-12T11:32:17.308Z,10.93
2023-01-12T11:34:52.291Z,10.43
2023-01-12T11:37:19.482Z,7.60
2023-01-12T11:39:48.652Z,6.73
2023-01-12T11:42:40.023Z,10.60
2023-01-12T11:45:12.901Z,9.83
2023-01-12T11:47:42.210Z,7.13
2023-01-12T11:50:12.176Z,6.47
2023-01-12T11:52:39.607Z,11.97
2023-01-12T11:55:06.998Z,8.63
2023-01-12T11:57:41.208Z,8.63
2023-01-12T12:00:26.729Z,6.27
2023-01-12T12:02:59.680Z,14.03
2023-01-12T12:05:41.162Z,7.93
2023-01-12T12:08:27.739Z,6.50
2023-01-12T12:11:06.376Z,9.00
2023-01-12T12:13:33.549Z,6.10
2023-01-12T12:16:15.962Z,7.57
2023-01-12T12:18:43.096Z,10.23
2023-01-12T12:21:22.554Z,7.97
2023-01-12T12:24:07.785Z,6.60
2023-01-12T12:26:36.626Z,5.67
2023-01-12T12:29:03.732Z,7.73
2023-01-12T12:31:41.652Z,5.47
2023-01-12T12:34:27.575Z,5.30
2023-01-12T12:37:05.494Z,9.97
2023-01-12T12:39:37.032Z,4.23
2023-01-12T12:42:23.189Z,6.43
2023-01-12T12:45:17.586Z,7.90
2023-01-12T12:48:02.739Z,5.97
2023-01-12T12:50:39.677Z,5.43
2023-01-12T12:53:25.236Z,3.40
2023-01-12T12:55:53.715Z,4.40
2023-01-12T12:58:23.588Z,7.37
2023-01-12T13:00:51.316Z,7.77
2023-01-12T13:03:37.094Z,5.93
2023-01-12T13:06:20.585Z,9.73
2023-01-12T13:08:49.348Z,7.30
2023-01-12T13:11:16.509Z,4.40
2023-01-12T13:14:04.104Z,6.10
2023-01-12T13:16:31.193Z,8.80
2023-01-12T13:18:58.328Z,6.87
2023-01-12T13:21:28.537Z,6.53
2023-01-12T13:24:22.405Z,5.53
2023-01-12T13:26:52.467Z,10.53
2023-01-12T13:29:25.430Z,4.37
2023-01-12T13:31:54.481Z,5.17
2023-01-12T13:34:42.135Z,6.53
2023-01-12T13:37:12.311Z,5.40
2023-01-12T13:39:41.734Z,6.30
2023-01-12T13:42:32.954Z,6.83
2023-01-12T13:45:00.222Z,1.73
2023-01-12T13:47:32.852Z,4.17
2023-01-12T13:50:01.301Z,2.83
2023-01-12T13:52:30.076Z,4.60
2023-01-12T13:54:57.442Z,4.40
2023-01-12T13:57:29.466Z,4.87
2023-01-12T13:59:58.020Z,4.83
2023-01-12T14:02:25.704Z,3.97
2023-01-12T14:04:57.687Z,3.03
2023-01-12T14:07:34.180Z,5.80
2023-01-12T14:10:07.520Z,4.93
2023-01-12T14:12:34.627Z,2.07
2023-01-12T14:15:26.270Z,5.80
2023-01-12T14:18:02.183Z,2.47
2023-01-12T14:20:31.272Z,3.27
2023-01-12T14:23:16.568Z,2.97
2023-01-12T14:25:44.239Z,6.10
2023-01-12T14:28:18.556Z,3.60
2023-01-12T14:30:50.834Z,3.10
2023-01-12T14:33:20.365Z,3.20
2023-01-12T14:35:48.663Z,2.47
2023-01-12T14:38:18.932Z,2.23
2023-01-12T14:40:50.545Z,2.70
2023-01-12T14:43:36.831Z,1.30
2023-01-12T14:46:23.437Z,3.57
2023-01-12T14:49:01.256Z,4.57
2023-01-12T14:51:34.227Z,3.87
2023-01-12T14:54:03.139Z,2.80
2023-01-12T14:56:40.810Z,2.73
2023-01-12T14:59:09.695Z,3.33
2023-01-12T15:01:38.305Z,3.47
2023-01-12T15:04:06.649Z,3.90
2023-01-12T15:06:40.937Z,1.60
2023-01-12T15:09:23.589Z,4.00
2023-01-12T15:11:50.832Z,2.20
2023-01-12T15:14:24.949Z,3.83
2023-01-12T15:17:12.811Z,3.27
2023-01-12T15:19:58.722Z,5.00
2023-01-12T15:22:46.072Z,3.63
2023-01-12T15:25:35.770Z,3.80
2023-01-12T15:28:03.793Z,3.23
2023-01-12T15:30:31.432Z,2.83
2023-01-12T15:32:58.615Z,4.10
2023-01-12T15:35:27.158Z,3.47
2023-01-12T15:37:55.746Z,2.80
2023-01-12T15:40:23.355Z,2.57
2023-01-12T15:42:53.808Z,1.97
2023-01-12T15:45:20.978Z,2.47
2023-01-12T15:47:48.159Z,3.53
2023-01-12T15:50:15.370Z,3.13
2023-01-12T15:52:42.514Z,5.70
2023-01-12T15:55:14.165Z,4.63
2023-01-12T15:57:41.304Z,4.90
2023-01-12T16:00:08.829Z,2.30
2023-01-12T16:02:39.178Z,4.07
2023-01-12T16:05:06.898Z,3.07
2023-01-12T16:07:34.117Z,4.67
2023-01-12T16:10:01.278Z,4.77
2023-01-12T16:12:28.454Z,4.03
2023-01-12T16:14:57.801Z,4.27
2023-01-12T16:17:25.449Z,2.63
2023-01-12T16:19:52.695Z,2.23
2023-01-12T16:22:21.421Z,2.60
2023-01-12T16:24:49.133Z,3.40
2023-01-12T16:27:16.990Z,3.20
2023-01-12T16:29:44.292Z,5.50
2023-01-12T16:32:11.566Z,3.50
2023-01-12T16:34:38.791Z,3.00
2023-01-12T16:37:05.950Z,2.87
2023-01-12T16:39:33.280Z,6.13
2023-01-12T16:42:03.480Z,6.53
2023-01-12T16:44:31.614Z,5.57
2023-01-12T16:46:58.824Z,5.90
2023-01-12T16:49:26.162Z,7.97
2023-01-12T16:51:53.439Z,3.17
2023-01-12T16:54:20.922Z,3.13
2023-01-12T16:56:48.115Z,5.33
2023-01-12T16:59:15.327Z,3.43
2023-01-12T17:01:42.827Z,6.07
2023-01-12T17:04:10.681Z,2.83
2023-01-12T17:06:39.613Z,3.30
2023-01-12T17:09:07.633Z,4.17
2023-01-12T17:11:35.557Z,4.90
2023-01-12T17:14:22.863Z,3.43
2023-01-12T17:16:51.349Z,4.27
2023-01-12T17:19:19.182Z,3.43
2023-01-12T17:21:47.778Z,3.50
2023-01-12T17:24:19.710Z,0.97
2023-01-12T17:26:49.700Z,2.47
2023-01-12T17:29:17.278Z,2.67
2023-01-12T17:31:45.129Z,3.33
2023-01-12T17:34:13.453Z,4.40
2023-01-12T17:36:40.999Z,5.00
2023-01-12T17:39:08.445Z,2.07
2023-01-12T17:41:54.356Z,3.03
2023-01-12T17:44:21.656Z,4.13
2023-01-12T17:46:48.920Z,2.50
2023-01-12T17:49:16.246Z,4.50
2023-01-12T17:51:43.443Z,4.97
2023-01-12T17:54:12.149Z,3.70
2023-01-12T17:56:39.353Z,3.27
2023-01-12T17:59:06.974Z,4.10
2023-01-12T18:01:35.557Z,3.57
2023-01-12T18:04:03.193Z,3.80
2023-01-12T18:06:30.407Z,3.80
2023-01-12T18:08:59.776Z,4.07
2023-01-12T18:11:27.658Z,4.07
2023-01-12T18:13:55.184Z,4.63
2023-01-12T18:16:22.767Z,5.47
2023-01-12T18:18:50.397Z,7.03
2023-01-12T18:21:22.410Z,2.60
2023-01-12T18:23:50.529Z,4.93
2023-01-12T18:26:18.958Z,6.17
2023-01-12T18:28:46.233Z,5.73
2023-01-12T18:31:14.999Z,3.23
2023-01-12T18:33:42.503Z,2.43
2023-01-12T18:36:11.037Z,4.23
2023-01-12T18:38:44.446Z,3.43
2023-01-12T18:41:30.785Z,3.10
2023-01-12T18:44:04.970Z,3.77
2023-01-12T18:46:51.032Z,3.37
2023-01-12T18:49:21.800Z,2.03
2023-01-12T18:52:07.784Z,4.27
2023-01-12T18:54:43.187Z,4.83
2023-01-12T18:57:10.785Z,4.03
2023-01-12T18:59:38.319Z,3.77
2023-01-12T19:02:06.276Z,2.87
2023-01-12T19:04:53.728Z,4.60
2023-01-12T19:07:30.722Z,4.93
2023-01-12T19:09:58.201Z,4.00
2023-01-12T19:12:25.400Z,3.57
2023-01-12T19:15:11.003Z,4.43
2023-01-12T19:17:41.688Z,4.33
2023-01-12T19:20:14.379Z,3.40
2023-01-12T19:23:00.211Z,4.03
2023-01-12T19:25:46.281Z,3.87
2023-01-12T19:28:32.855Z,4.17
2023-01-12T19:31:04.572Z,3.83
2023-01-12T19:33:31.781Z,3.50
2023-01-12T19:35:59.204Z,4.03
2023-01-12T19:38:26.331Z,2.87
2023-01-12T19:40:57.358Z,3.27
2023-01-12T19:43:27.765Z,3.93
2023-01-12T19:45:58.888Z,3.93
2023-01-12T19:48:26.728Z,3.63
2023-01-12T19:50:54.543Z,5.70
2023-01-12T19:53:23.487Z,3.60
2023-01-12T19:55:51.031Z,3.50
2023-01-12T19:58:20.794Z,2.90
2023-01-12T20:00:48.587Z,2.73
2023-01-12T20:03:16.745Z,2.73
2023-01-12T20:05:44.460Z,3.50
2023-01-12T20:08:11.940Z,3.57
2023-01-12T20:10:39.139Z,2.60
2023-01-12T20:13:06.913Z,3.70
2023-01-12T20:15:34.182Z,3.20
2023-01-12T20:18:01.937Z,2.60
2023-01-12T20:20:30.009Z,3.03
2023-01-12T20:22:57.220Z,3.97
2023-01-12T20:25:27.260Z,3.13
2023-01-12T20:27:55.422Z,2.20
2023-01-12T20:30:37.108Z,4.47
2023-01-12T20:33:06.380Z,3.30
2023-01-12T20:35:34.972Z,3.73
2023-01-12T20:38:03.595Z,4.03
2023-01-12T20:40:30.715Z,3.60
2023-01-12T20:42:57.857Z,4.10
2023-01-12T20:45:25.001Z,2.83
2023-01-12T20:47:52.167Z,5.50
2023-01-12T20:50:19.380Z,3.73
2023-01-12T20:52:48.129Z,5.10
2023-01-12T20:55:15.736Z,2.93
2023-01-12T20:57:42.859Z,2.93
2023-01-12T21:00:11.214Z,2.97
2023-01-12T21:02:38.414Z,3.77
2023-01-12T21:05:05.738Z,3.00
2023-01-12T21:07:32.873Z,4.63
2023-01-12T21:10:00.092Z,2.13
2023-01-12T21:12:27.781Z,4.40
2023-01-12T21:14:55.264Z,3.50
2023-01-12T21:17:22.602Z,2.63
2023-01-12T21:19:49.756Z,4.10
2023-01-12T21:22:16.955Z,3.10
2023-01-12T21:24:44.106Z,4.13
2023-01-12T21:27:11.297Z,6.33
2023-01-12T21:29:38.427Z,5.27
2023-01-12T21:32:05.810Z,4.40
2023-01-12T21:34:33.016Z,2.83
2023-01-12T21:37:00.196Z,5.30
2023-01-12T21:39:27.347Z,2.83
2023-01-12T21:42:13.094Z,4.33
2023-01-12T21:44:40.288Z,4.67
2023-01-12T21:47:07.424Z,5.47
2023-01-12T21:49:34.571Z,2.90
2023-01-12T21:52:01.683Z,4.80
2023-01-12T21:54:28.987Z,7.20
2023-01-12T21:56:56.156Z,6.77
2023-01-12T21:59:23.278Z,3.00
2023-01-12T22:01:50.523Z,5.40
2023-01-12T22:04:17.717Z,4.30
2023-01-12T22:06:44.913Z,4.77
2023-01-12T22:09:12.031Z,2.37
2023-01-12T22:11:39.177Z,3.13
2023-01-12T22:14:06.296Z,4.83
2023-01-12T22:16:33.559Z,2.73
2023-01-12T22:19:00.726Z,5.40
2023-01-12T22:21:27.904Z,5.17
2023-01-12T22:23:55.061Z,4.83
2023-01-12T22:26:22.261Z,5.30
2023-01-12T22:28:49.758Z,3.73
2023-01-12T22:31:18.423Z,2.73
2023-01-12T22:33:54.073Z,4.53
2023-01-12T22:36:21.539Z,2.87
2023-01-12T22:38:48.687Z,4.37
2023-01-12T22:41:16.627Z,3.47
2023-01-12T22:43:44.733Z,3.80
2023-01-12T22:46:19.040Z,3.33
2023-01-12T22:48:48.688Z,4.20
2023-01-12T22:51:16.172Z,4.77
2023-01-12T22:53:43.717Z,4.73
2023-01-12T22:56:12.146Z,2.67
2023-01-12T22:58:39.658Z,4.93
2023-01-12T23:01:08.697Z,5.47
2023-01-12T23:03:36.395Z,4.50
2023-01-12T23:06:04.036Z,4.63
2023-01-12T23:08:31.120Z,8.60
2023-01-12T23:11:09.020Z,5.07
2023-01-12T23:13:36.268Z,6.77
2023-01-12T23:16:06.032Z,6.27
2023-01-12T23:18:34.196Z,5.03
2023-01-12T23:21:14.105Z,4.43
2023-01-12T23:23:42.143Z,3.47
2023-01-12T23:26:11.512Z,4.60
2023-01-12T23:28:41.373Z,4.43
2023-01-12T23:31:09.820Z,5.33
2023-01-12T23:33:37.662Z,4.67
2023-01-12T23:36:05.738Z,6.73
2023-01-12T23:38:33.054Z,7.10
2023-01-12T23:41:00.523Z,5.53
2023-01-12T23:43:27.787Z,4.43
2023-01-12T23:45:54.904Z,6.73
2023-01-12T23:48:23.582Z,5.53
2023-01-12T23:50:50.731Z,4.37
2023-01-12T23:53:17.790Z,3.40
2023-01-12T23:55:44.861Z,4.50
2023-01-12T23:58:11.923Z,5.43
